createdAt,value
2023-04-18T00:01:30.663Z,13.42
2023-04-18T00:03:58.063Z,13.44
2023-04-18T00:06:26.907Z,13.36
2023-04-18T00:08:54.478Z,13.38
2023-04-18T00:11:21.666Z,13.39
2023-04-18T00:13:50.505Z,13.40
2023-04-18T00:16:17.561Z,13.38
2023-04-18T00:18:44.894Z,13.41
2023-04-18T00:21:13.502Z,13.39
2023-04-18T00:23:41.757Z,13.36
2023-04-18T00:26:08.803Z,13.34
2023-04-18T00:28:36.148Z,13.28
2023-04-18T00:31:05.252Z,13.23
2023-04-18T00:33:32.751Z,13.27
2023-04-18T00:35:59.599Z,13.28
2023-04-18T00:38:26.954Z,13.27
2023-04-18T00:40:54.064Z,13.21
2023-04-18T00:43:23.406Z,13.26
2023-04-18T00:45:50.944Z,13.18
2023-04-18T00:48:20.629Z,13.26
2023-04-18T00:50:47.547Z,13.26
2023-04-18T00:53:15.647Z,13.18
2023-04-18T00:55:42.725Z,13.17
2023-04-18T00:58:10.228Z,13.17
2023-04-18T01:00:37.461Z,13.17
2023-04-18T01:03:04.785Z,13.17
2023-04-18T01:05:34.953Z,13.14
2023-04-18T01:08:03.006Z,13.15
2023-04-18T01:10:31.192Z,13.17
2023-04-18T01:13:12.450Z,13.03
2023-04-18T01:15:41.578Z,13.11
2023-04-18T01:18:09.237Z,13.10
2023-04-18T01:20:41.500Z,13.08
2023-04-18T01:23:10.559Z,13.08
2023-04-18T01:25:39.183Z,13.09
2023-04-18T01:28:06.720Z,13.08
2023-04-18T01:30:34.642Z,13.12
2023-04-18T01:33:02.501Z,13.10
2023-04-18T01:35:30.059Z,13.07
2023-04-18T01:37:57.810Z,12.99
2023-04-18T01:40:25.148Z,13.04
2023-04-18T01:42:53.941Z,13.00
2023-04-18T01:45:20.964Z,13.00
2023-04-18T01:47:48.405Z,12.99
2023-04-18T01:50:15.348Z,13.01
2023-04-18T01:52:42.727Z,13.03
2023-04-18T01:55:10.531Z,12.81
2023-04-18T01:57:38.218Z,12.98
2023-04-18T02:00:08.199Z,12.94
2023-04-18T02:02:35.800Z,12.90
2023-04-18T02:05:03.021Z,12.87
2023-04-18T02:07:30.357Z,12.88
2023-04-18T02:09:57.289Z,12.78
2023-04-18T02:12:24.681Z,12.88
2023-04-18T02:14:56.278Z,12.96
2023-04-18T02:17:33.279Z,12.94
2023-04-18T02:20:00.644Z,12.89
2023-04-18T02:22:27.996Z,12.86
2023-04-18T02:24:54.980Z,12.68
2023-04-18T02:27:22.274Z,12.87
2023-04-18T02:29:49.345Z,12.90
2023-04-18T02:32:16.689Z,12.91
2023-04-18T02:34:45.036Z,12.94
2023-04-18T02:37:12.212Z,12.93
2023-04-18T02:39:39.251Z,12.80
2023-04-18T02:42:07.134Z,12.88
2023-04-18T02:44:34.390Z,12.80
2023-04-18T02:47:01.862Z,12.79
2023-04-18T02:49:28.802Z,12.80
2023-04-18T02:51:57.402Z,12.77
2023-04-18T02:54:24.907Z,12.76
2023-04-18T02:56:54.055Z,12.76
2023-04-18T02:59:21.127Z,12.78
2023-04-18T03:01:48.441Z,12.78
2023-04-18T03:04:15.880Z,12.77
2023-04-18T03:06:43.525Z,12.78
2023-04-18T03:09:11.800Z,12.70
2023-04-18T03:11:39.131Z,12.68
2023-04-18T03:14:06.116Z,12.66
2023-04-18T03:16:33.708Z,12.58
2023-04-18T03:19:01.559Z,12.64
2023-04-18T03:21:28.732Z,12.68
2023-04-18T03:23:55.756Z,12.63
2023-04-18T03:26:25.261Z,12.54
2023-04-18T03:28:52.269Z,12.58
2023-04-18T03:31:19.620Z,12.46
2023-04-18T03:33:47.075Z,12.45
2023-04-18T03:36:18.583Z,12.46
2023-04-18T03:38:45.512Z,12.47
2023-04-18T03:41:12.892Z,12.50
2023-04-18T03:43:41.365Z,12.55
2023-04-18T03:46:08.662Z,12.53
2023-04-18T03:48:37.358Z,12.50
2023-04-18T03:51:05.925Z,12.46
2023-04-18T03:53:33.051Z,12.48
2023-04-18T03:56:00.297Z,12.45
2023-04-18T03:58:27.227Z,12.34
2023-04-18T04:00:55.909Z,12.37
2023-04-18T04:03:22.972Z,12.35
2023-04-18T04:05:50.538Z,12.35
2023-04-18T04:08:17.677Z,12.35
2023-04-18T04:10:44.987Z,12.30
2023-04-18T04:13:12.018Z,12.25
2023-04-18T04:15:39.199Z,12.27
2023-04-18T04:18:08.981Z,12.28
2023-04-18T04:20:36.310Z,12.29
2023-04-18T04:23:03.346Z,12.26
2023-04-18T04:25:30.708Z,12.28
2023-04-18T04:27:57.727Z,12.29
2023-04-18T04:30:24.960Z,12.32
2023-04-18T04:32:52.154Z,12.24
2023-04-18T04:35:20.927Z,12.25
2023-04-18T04:37:48.344Z,12.29
2023-04-18T04:40:15.712Z,12.35
2023-04-18T04:42:42.714Z,12.29
2023-04-18T04:45:10.742Z,12.32
2023-04-18T04:47:37.946Z,12.38
2023-04-18T04:50:07.790Z,12.38
2023-04-18T04:52:36.584Z,12.34
2023-04-18T04:55:04.170Z,12.34
2023-04-18T04:57:31.114Z,12.36
2023-04-18T04:59:58.296Z,12.34
2023-04-18T05:02:25.522Z,12.31
2023-04-18T05:04:53.053Z,12.27
2023-04-18T05:07:20.161Z,12.28
2023-04-18T05:09:49.588Z,12.34
2023-04-18T05:12:16.696Z,12.38
2023-04-18T05:14:44.358Z,12.43
2023-04-18T05:17:11.274Z,12.44
2023-04-18T05:19:38.522Z,12.38
2023-04-18T05:22:05.518Z,12.39
2023-04-18T05:24:32.746Z,12.39
2023-04-18T05:27:01.891Z,12.26
2023-04-18T05:29:29.243Z,12.32
2023-04-18T05:31:56.205Z,12.23
2023-04-18T05:34:23.713Z,12.32
2023-04-18T05:36:51.050Z,12.40
2023-04-18T05:39:18.115Z,12.47
2023-04-18T05:41:45.144Z,12.47
2023-04-18T05:44:13.734Z,12.54
2023-04-18T05:46:41.584Z,12.40
2023-04-18T05:49:09.025Z,12.65
2023-04-18T05:51:36.109Z,12.67
2023-04-18T05:54:04.352Z,12.70
2023-04-18T05:56:31.441Z,12.70
2023-04-18T05:58:58.790Z,12.78
2023-04-18T06:01:27.582Z,12.80
2023-04-18T06:03:55.637Z,12.83
2023-04-18T06:06:23.022Z,12.83
2023-04-18T06:08:50.573Z,12.90
2023-04-18T06:11:20.118Z,12.90
2023-04-18T06:13:47.540Z,13.04
2023-04-18T06:16:14.730Z,13.10
2023-04-18T06:18:43.447Z,13.18
2023-04-18T06:21:10.604Z,13.22
2023-04-18T06:23:38.559Z,13.32
2023-04-18T06:26:07.206Z,13.45
2023-04-18T06:28:34.451Z,13.54
2023-04-18T06:31:01.500Z,13.56
2023-04-18T06:33:29.087Z,13.61
2023-04-18T06:35:58.137Z,13.61
2023-04-18T06:38:25.459Z,13.75
2023-04-18T06:40:52.784Z,13.83
2023-04-18T06:43:21.991Z,13.86
2023-04-18T06:45:49.286Z,13.92
2023-04-18T06:48:16.652Z,13.87
2023-04-18T06:50:43.954Z,13.96
2023-04-18T06:53:12.962Z,14.01
2023-04-18T06:55:40.818Z,14.08
2023-04-18T06:58:09.694Z,14.27
2023-04-18T07:00:36.840Z,14.45
2023-04-18T07:03:11.385Z,14.44
2023-04-18T07:05:39.139Z,14.53
2023-04-18T07:08:06.641Z,14.66
2023-04-18T07:10:35.286Z,14.64
2023-04-18T07:13:03.153Z,14.21
2023-04-18T07:15:30.195Z,14.86
2023-04-18T07:17:57.938Z,14.81
2023-04-18T07:20:26.803Z,15.09
2023-04-18T07:22:54.256Z,15.23
2023-04-18T07:25:21.328Z,15.31
2023-04-18T07:27:50.705Z,15.54
2023-04-18T07:30:17.784Z,15.46
2023-04-18T07:32:45.214Z,15.84
2023-04-18T07:35:12.304Z,16.09
2023-04-18T07:37:39.751Z,16.29
2023-04-18T07:40:08.604Z,16.25
2023-04-18T07:42:35.947Z,16.10
2023-04-18T07:45:07.002Z,15.99
2023-04-18T07:47:34.453Z,15.92
2023-04-18T07:50:02.028Z,15.84
2023-04-18T07:52:29.231Z,15.76
2023-04-18T07:54:56.237Z,15.59
2023-04-18T07:57:23.622Z,15.36
2023-04-18T07:59:53.782Z,15.31
2023-04-18T08:02:22.600Z,15.09
2023-04-18T08:04:50.034Z,14.83
2023-04-18T08:07:17.698Z,15.03
2023-04-18T08:09:44.589Z,15.03
2023-04-18T08:12:12.020Z,15.03
2023-04-18T08:14:39.137Z,15.03
2023-04-18T08:17:06.448Z,15.02
2023-04-18T08:19:35.609Z,15.27
2023-04-18T08:22:10.656Z,15.47
2023-04-18T08:24:38.735Z,15.49
2023-04-18T08:27:06.174Z,15.76
2023-04-18T08:29:33.822Z,15.92
2023-04-18T08:32:01.352Z,15.88
2023-04-18T08:34:29.375Z,16.09
2023-04-18T08:36:58.157Z,15.96
2023-04-18T08:39:25.429Z,16.01
2023-04-18T08:41:59.143Z,15.97
2023-04-18T08:44:28.660Z,16.20
2023-04-18T08:46:56.249Z,16.37
2023-04-18T08:49:24.952Z,16.13
2023-04-18T08:51:52.452Z,16.57
2023-04-18T08:54:23.348Z,16.30
2023-04-18T08:57:06.563Z,16.82
2023-04-18T08:59:35.733Z,16.96
2023-04-18T09:02:06.771Z,17.22
2023-04-18T09:04:38.942Z,17.68
2023-04-18T09:07:10.108Z,17.11
2023-04-18T09:09:44.293Z,17.75
2023-04-18T09:12:14.833Z,17.68
2023-04-18T09:14:46.821Z,17.63
2023-04-18T09:17:18.410Z,17.84
2023-04-18T09:19:49.116Z,17.97
2023-04-18T09:22:17.101Z,18.00
2023-04-18T09:24:55.514Z,18.27
2023-04-18T09:27:23.155Z,18.71
2023-04-18T09:29:52.159Z,18.81
2023-04-18T09:32:29.180Z,18.67
2023-04-18T09:34:58.686Z,18.76
2023-04-18T09:37:26.508Z,18.71
2023-04-18T09:39:55.715Z,18.65
2023-04-18T09:42:23.115Z,18.61
2023-04-18T09:45:03.616Z,18.78
2023-04-18T09:47:31.511Z,19.10
2023-04-18T09:49:58.605Z,19.19
2023-04-18T09:52:26.361Z,18.81
2023-04-18T09:54:58.641Z,19.02
2023-04-18T09:57:31.948Z,19.00
2023-04-18T10:00:10.683Z,19.02
2023-04-18T10:02:49.875Z,18.96
2023-04-18T10:05:20.784Z,18.83
2023-04-18T10:07:49.985Z,18.83
2023-04-18T10:10:18.728Z,18.88
2023-04-18T10:12:48.246Z,19.51
2023-04-18T10:15:16.939Z,19.63
2023-04-18T10:18:02.653Z,19.93
2023-04-18T10:20:32.821Z,19.84
2023-04-18T10:23:36.580Z,19.80
2023-04-18T10:26:05.531Z,19.73
2023-04-18T10:28:53.757Z,20.47
2023-04-18T10:31:22.473Z,20.20
2023-04-18T10:34:03.881Z,20.06
2023-04-18T10:37:03.541Z,19.71
2023-04-18T10:39:31.432Z,19.48
2023-04-18T10:41:59.988Z,18.91
2023-04-18T10:44:27.640Z,19.06
2023-04-18T10:47:20.228Z,18.93
2023-04-18T10:49:58.824Z,19.15
2023-04-18T10:52:27.299Z,19.24
2023-04-18T10:54:59.212Z,19.13
2023-04-18T10:57:37.861Z,19.14
2023-04-18T11:00:07.073Z,19.47
2023-04-18T11:02:34.246Z,19.54
2023-04-18T11:05:07.463Z,19.51
2023-04-18T11:07:37.021Z,19.16
2023-04-18T11:10:06.295Z,19.35
2023-04-18T11:12:37.202Z,19.29
2023-04-18T11:15:10.849Z,19.50
2023-04-18T11:17:40.349Z,19.67
2023-04-18T11:20:11.232Z,19.12
2023-04-18T11:22:46.737Z,19.66
2023-04-18T11:25:14.412Z,19.67
2023-04-18T11:27:44.076Z,19.74
2023-04-18T11:30:14.068Z,19.54
2023-04-18T11:32:41.444Z,19.80
2023-04-18T11:35:10.679Z,19.46
2023-04-18T11:37:39.104Z,19.54
2023-04-18T11:40:09.516Z,19.58
2023-04-18T11:42:38.914Z,19.28
2023-04-18T11:45:12.309Z,19.13
2023-04-18T11:47:41.950Z,18.40
2023-04-18T11:50:10.913Z,18.68
2023-04-18T11:52:39.841Z,18.71
2023-04-18T11:55:17.613Z,18.45
2023-04-18T11:57:52.370Z,18.87
2023-04-18T12:00:32.516Z,18.93
2023-04-18T12:03:01.981Z,19.20
2023-04-18T12:05:30.921Z,19.20
2023-04-18T12:08:05.871Z,19.13
2023-04-18T12:10:33.482Z,19.13
2023-04-18T12:13:00.731Z,18.83
2023-04-18T12:15:30.290Z,19.15
2023-04-18T12:17:59.866Z,19.36
2023-04-18T12:20:34.891Z,19.09
2023-04-18T12:23:03.509Z,19.11
2023-04-18T12:25:30.707Z,19.02
2023-04-18T12:27:59.120Z,18.79
2023-04-18T12:30:27.364Z,19.14
2023-04-18T12:32:59.474Z,18.70
2023-04-18T12:35:27.941Z,18.96
2023-04-18T12:37:56.695Z,19.12
2023-04-18T12:40:26.460Z,18.97
2023-04-18T12:42:54.778Z,19.16
2023-04-18T12:45:23.273Z,18.80
2023-04-18T12:47:51.863Z,18.86
2023-04-18T12:50:22.247Z,18.79
2023-04-18T12:52:51.393Z,18.47
2023-04-18T12:55:19.104Z,18.64
2023-04-18T12:57:46.326Z,18.61
2023-04-18T13:00:14.918Z,18.79
2023-04-18T13:02:44.184Z,18.96
2023-04-18T13:05:12.986Z,18.76
2023-04-18T13:07:42.540Z,18.78
2023-04-18T13:10:11.989Z,18.72
2023-04-18T13:12:39.838Z,18.91
2023-04-18T13:15:08.359Z,18.84
2023-04-18T13:17:38.401Z,19.06
2023-04-18T13:20:08.996Z,19.23
2023-04-18T13:22:36.174Z,19.06
2023-04-18T13:25:05.882Z,19.18
2023-04-18T13:27:33.575Z,19.27
2023-04-18T13:30:01.259Z,19.15
2023-04-18T13:32:28.621Z,19.06
2023-04-18T13:34:56.450Z,18.74
2023-04-18T13:37:23.989Z,18.66
2023-04-18T13:39:51.473Z,18.64
2023-04-18T13:42:20.625Z,18.32
2023-04-18T13:44:48.355Z,18.24
2023-04-18T13:47:15.753Z,18.60
2023-04-18T13:49:43.009Z,18.62
2023-04-18T13:52:10.220Z,18.60
2023-04-18T13:54:37.784Z,18.07
2023-04-18T13:57:15.430Z,18.51
2023-04-18T13:59:44.271Z,18.24
2023-04-18T14:02:11.274Z,18.37
2023-04-18T14:04:39.031Z,18.28
2023-04-18T14:07:09.272Z,18.23
2023-04-18T14:09:36.552Z,18.23
2023-04-18T14:12:03.959Z,18.17
2023-04-18T14:14:31.427Z,18.18
2023-04-18T14:16:59.869Z,18.04
2023-04-18T14:19:27.328Z,18.19
2023-04-18T14:21:54.570Z,18.09
2023-04-18T14:24:21.962Z,18.00
2023-04-18T14:26:49.044Z,18.04
2023-04-18T14:29:16.749Z,18.01
2023-04-18T14:31:44.055Z,17.91
2023-04-18T14:34:13.297Z,17.91
2023-04-18T14:36:40.863Z,17.91
2023-04-18T14:39:08.358Z,18.07
2023-04-18T14:41:35.864Z,18.09
2023-04-18T14:44:04.211Z,18.19
2023-04-18T14:46:31.433Z,18.09
2023-04-18T14:48:58.764Z,18.24
2023-04-18T14:51:27.669Z,18.37
2023-04-18T14:53:55.613Z,18.45
2023-04-18T14:56:24.265Z,18.48
2023-04-18T14:58:51.317Z,18.53
2023-04-18T15:01:18.587Z,18.67
2023-04-18T15:03:46.410Z,18.51
2023-04-18T15:06:13.537Z,18.35
2023-04-18T15:08:44.119Z,18.15
2023-04-18T15:11:11.303Z,17.97
2023-04-18T15:13:40.026Z,18.06
2023-04-18T15:16:07.796Z,18.16
2023-04-18T15:18:35.291Z,18.19
2023-04-18T15:21:02.316Z,18.11
2023-04-18T15:23:29.700Z,18.06
2023-04-18T15:25:59.425Z,17.98
2023-04-18T15:28:26.852Z,17.95
2023-04-18T15:30:53.974Z,17.87
2023-04-18T15:33:21.808Z,17.83
2023-04-18T15:35:48.903Z,17.85
2023-04-18T15:38:16.192Z,17.68
2023-04-18T15:40:46.101Z,17.70
2023-04-18T15:43:17.138Z,17.56
2023-04-18T15:45:44.679Z,17.41
2023-04-18T15:48:13.198Z,17.33
2023-04-18T15:50:41.906Z,17.34
2023-04-18T15:53:08.937Z,17.31
2023-04-18T15:55:36.118Z,17.38
2023-04-18T15:58:03.563Z,17.21
2023-04-18T16:00:31.926Z,17.46
2023-04-18T16:02:59.248Z,17.43
2023-04-18T16:05:26.488Z,17.40
2023-04-18T16:07:56.070Z,17.47
2023-04-18T16:10:23.164Z,17.37
2023-04-18T16:12:50.340Z,17.27
2023-04-18T16:15:17.386Z,17.17
2023-04-18T16:17:46.152Z,17.08
2023-04-18T16:20:13.742Z,16.97
2023-04-18T16:22:41.022Z,16.93
2023-04-18T16:25:09.562Z,16.88
2023-04-18T16:27:36.754Z,16.85
2023-04-18T16:30:04.383Z,16.70
2023-04-18T16:32:31.565Z,16.77
2023-04-18T16:34:59.887Z,16.73
2023-04-18T16:37:27.225Z,16.70
2023-04-18T16:39:54.213Z,16.63
2023-04-18T16:42:21.568Z,16.61
2023-04-18T16:44:48.845Z,16.60
2023-04-18T16:47:16.150Z,16.45
2023-04-18T16:49:44.803Z,16.40
2023-04-18T16:52:13.784Z,16.37
2023-04-18T16:54:41.389Z,16.29
2023-04-18T16:57:08.753Z,16.37
2023-04-18T16:59:35.943Z,16.24
2023-04-18T17:02:03.350Z,16.15
2023-04-18T17:04:31.407Z,16.20
2023-04-18T17:06:58.695Z,16.15
2023-04-18T17:09:27.472Z,16.13
2023-04-18T17:11:54.696Z,16.11
2023-04-18T17:14:21.670Z,16.07
2023-04-18T17:16:50.674Z,16.02
2023-04-18T17:19:19.177Z,15.94
2023-04-18T17:21:46.541Z,16.00
2023-04-18T17:24:14.370Z,15.94
2023-04-18T17:26:42.944Z,15.86
2023-04-18T17:29:09.917Z,15.79
2023-04-18T17:31:37.294Z,15.76
2023-04-18T17:34:04.683Z,15.63
2023-04-18T17:36:31.997Z,15.57
2023-04-18T17:39:05.494Z,15.53
2023-04-18T17:41:39.085Z,15.46
2023-04-18T17:44:08.294Z,15.45
2023-04-18T17:46:35.885Z,15.33
2023-04-18T17:49:04.297Z,15.28
2023-04-18T17:51:32.737Z,15.12
2023-04-18T17:53:59.698Z,15.10
2023-04-18T17:56:27.371Z,15.03
2023-04-18T17:58:56.596Z,15.01
2023-04-18T18:01:28.671Z,15.02
2023-04-18T18:03:57.025Z,15.04
2023-04-18T18:06:24.387Z,15.10
2023-04-18T18:08:51.304Z,15.12
2023-04-18T18:11:18.674Z,15.14
2023-04-18T18:13:46.745Z,15.14
2023-04-18T18:16:14.186Z,15.13
2023-04-18T18:18:43.303Z,15.17
2023-04-18T18:21:11.490Z,15.17
2023-04-18T18:23:38.731Z,15.17
2023-04-18T18:26:06.666Z,15.14
2023-04-18T18:28:34.076Z,15.10
2023-04-18T18:31:01.392Z,15.08
2023-04-18T18:33:28.461Z,15.05
2023-04-18T18:35:58.571Z,15.07
2023-04-18T18:38:26.468Z,14.90
2023-04-18T18:40:56.098Z,15.12
2023-04-18T18:43:28.717Z,15.03
2023-04-18T18:45:59.364Z,15.14
2023-04-18T18:48:27.249Z,15.12
2023-04-18T18:50:56.368Z,15.18
2023-04-18T18:53:24.754Z,15.19
2023-04-18T18:55:52.041Z,15.15
2023-04-18T18:58:19.172Z,15.09
2023-04-18T19:00:47.228Z,14.85
2023-04-18T19:03:18.451Z,14.98
2023-04-18T19:05:46.186Z,14.88
2023-04-18T19:08:13.459Z,14.91
2023-04-18T19:10:42.356Z,14.98
2023-04-18T19:13:09.656Z,15.01
2023-04-18T19:15:37.148Z,14.99
2023-04-18T19:18:04.573Z,14.97
2023-04-18T19:20:33.876Z,14.84
2023-04-18T19:23:00.601Z,14.89
2023-04-18T19:25:27.968Z,14.82
2023-04-18T19:27:56.372Z,14.80
2023-04-18T19:30:24.481Z,14.74
2023-04-18T19:32:52.168Z,14.73
2023-04-18T19:35:19.595Z,14.75
2023-04-18T19:37:46.795Z,14.77
2023-04-18T19:40:14.432Z,14.81
2023-04-18T19:42:41.369Z,14.63
2023-04-18T19:45:12.073Z,14.19
2023-04-18T19:47:38.960Z,14.64
2023-04-18T19:50:07.986Z,14.56
2023-04-18T19:52:35.025Z,14.54
2023-04-18T19:55:02.345Z,14.50
2023-04-18T19:57:29.714Z,14.46
2023-04-18T19:59:57.036Z,14.46
2023-04-18T20:02:25.597Z,14.39
2023-04-18T20:04:53.105Z,14.45
2023-04-18T20:07:20.387Z,14.45
2023-04-18T20:09:47.613Z,14.44
2023-04-18T20:12:14.734Z,14.07
2023-04-18T20:14:42.037Z,14.34
2023-04-18T20:17:09.019Z,14.28
2023-04-18T20:19:37.968Z,14.27
2023-04-18T20:22:05.185Z,14.22
2023-04-18T20:24:34.680Z,14.20
2023-04-18T20:27:01.851Z,14.17
2023-04-18T20:29:31.321Z,14.04
2023-04-18T20:31:58.450Z,14.12
2023-04-18T20:34:25.602Z,14.10
2023-04-18T20:36:53.948Z,14.16
2023-04-18T20:39:21.247Z,14.23
2023-04-18T20:41:50.783Z,14.26
2023-04-18T20:44:22.322Z,14.27
2023-04-18T20:46:49.383Z,14.28
2023-04-18T20:49:16.788Z,14.12
2023-04-18T20:51:43.954Z,14.21
2023-04-18T20:54:12.756Z,14.07
2023-04-18T20:56:39.910Z,14.00
2023-04-18T20:59:07.251Z,13.94
2023-04-18T21:01:36.741Z,13.87
2023-04-18T21:04:05.042Z,13.86
2023-04-18T21:06:32.816Z,13.82
2023-04-18T21:09:00.211Z,13.73
2023-04-18T21:11:28.705Z,14.01
2023-04-18T21:13:55.902Z,14.07
2023-04-18T21:16:24.139Z,14.14
2023-04-18T21:18:51.361Z,14.13
2023-04-18T21:21:18.495Z,14.14
2023-04-18T21:23:45.964Z,13.86
2023-04-18T21:26:13.799Z,14.15
2023-04-18T21:28:56.620Z,14.10
2023-04-18T21:31:23.874Z,14.19
2023-04-18T21:33:55.048Z,14.16
2023-04-18T21:36:23.344Z,14.16
2023-04-18T21:38:52.438Z,14.09
2023-04-18T21:41:20.229Z,14.01
2023-04-18T21:43:47.832Z,13.95
2023-04-18T21:46:16.635Z,13.92
2023-04-18T21:48:45.734Z,13.86
2023-04-18T21:51:14.558Z,13.84
2023-04-18T21:53:42.631Z,13.81
2023-04-18T21:56:09.940Z,13.72
2023-04-18T21:58:37.658Z,13.62
2023-04-18T22:01:04.850Z,13.52
2023-04-18T22:03:35.125Z,13.45
2023-04-18T22:06:04.516Z,13.59
2023-04-18T22:08:33.886Z,13.63
2023-04-18T22:11:01.071Z,13.40
2023-04-18T22:13:30.315Z,13.55
2023-04-18T22:15:58.451Z,13.61
2023-04-18T22:18:39.263Z,13.56
2023-04-18T22:21:09.616Z,13.52
2023-04-18T22:23:38.006Z,13.50
2023-04-18T22:26:05.265Z,13.52
2023-04-18T22:28:37.905Z,13.42
2023-04-18T22:31:07.698Z,13.43
2023-04-18T22:33:36.777Z,13.29
2023-04-18T22:36:04.307Z,13.36
2023-04-18T22:38:31.560Z,13.30
2023-04-18T22:40:59.341Z,13.20
2023-04-18T22:43:29.538Z,13.18
2023-04-18T22:45:56.699Z,13.13
2023-04-18T22:48:24.235Z,13.11
2023-04-18T22:51:02.605Z,13.08
2023-04-18T22:53:30.309Z,13.17
2023-04-18T22:55:57.320Z,13.01
2023-04-18T22:58:24.614Z,13.16
2023-04-18T23:00:51.628Z,13.13
2023-04-18T23:03:19.076Z,13.01
2023-04-18T23:05:46.287Z,13.09
2023-04-18T23:08:14.916Z,13.15
2023-04-18T23:10:44.754Z,13.13
2023-04-18T23:13:13.609Z,13.14
2023-04-18T23:15:43.039Z,13.15
2023-04-18T23:18:15.250Z,13.15
2023-04-18T23:20:50.479Z,13.15
2023-04-18T23:23:22.820Z,12.49
2023-04-18T23:25:49.865Z,13.12
2023-04-18T23:28:20.932Z,13.14
2023-04-18T23:30:50.146Z,13.17
2023-04-18T23:33:22.300Z,12.57
2023-04-18T23:35:49.288Z,12.99
2023-04-18T23:38:20.479Z,12.96
2023-04-18T23:40:49.349Z,12.89
2023-04-18T23:43:21.717Z,12.41
2023-04-18T23:45:48.826Z,12.83
2023-04-18T23:48:16.214Z,12.79
2023-04-18T23:50:48.313Z,12.75
2023-04-18T23:53:17.078Z,12.78
2023-04-18T23:55:50.654Z,12.77
2023-04-18T23:58:18.374Z,12.56
